sensor_id;sensor_type;location;lat;lon;timestamp;temperature;humidity
15969;DHT22;8085;53.472;9.794;2023-04-01T05:21:17;9.50;99.90
15969;DHT22;8085;53.472;9.794;2023-04-01T10:08:34;7.40;99.90
15969;DHT22;8085;53.472;9.794;2023-04-01T10:14:47;7.30;99.90
15969;DHT22;8085;53.472;9.794;2023-04-01T10:17:49;7.20;99.90
15969;DHT22;8085;53.472;9.794;2023-04-01T10:23:54;7.20;99.90
15969;DHT22;8085;53.472;9.794;2023-04-01T10:26:42;7.10;99.90
15969;DHT22;8085;53.472;9.794;2023-04-01T10:29:51;7.10;99.90
15969;DHT22;8085;53.472;9.794;2023-04-01T10:35:59;7.00;99.90
15969;DHT22;8085;53.472;9.794;2023-04-01T10:51:33;7.00;99.90
15969;DHT22;8085;53.472;9.794;2023-04-01T10:54:23;7.00;99.90
15969;DHT22;8085;53.472;9.794;2023-04-01T10:57:31;7.00;99.90
15969;DHT22;8085;53.472;9.794;2023-04-01T11:01:02;7.00;99.90
15969;DHT22;8085;53.472;9.794;2023-04-01T11:07:57;6.90;99.90
15969;DHT22;8085;53.472;9.794;2023-04-01T11:14:42;7.10;99.90
15969;DHT22;8085;53.472;9.794;2023-04-01T11:17:42;7.10;99.90
15969;DHT22;8085;53.472;9.794;2023-04-01T11:23:53;7.00;99.90
15969;DHT22;8085;53.472;9.794;2023-04-01T11:26:33;7.10;99.90
15969;DHT22;8085;53.472;9.794;2023-04-01T11:32:24;7.20;99.90
15969;DHT22;8085;53.472;9.794;2023-04-01T11:35:01;7.20;99.90
15969;DHT22;8085;53.472;9.794;2023-04-01T11:37:38;7.20;99.90
15969;DHT22;8085;53.472;9.794;2023-04-01T11:40:17;7.10;99.90
15969;DHT22;8085;53.472;9.794;2023-04-01T11:42:55;7.10;99.90
15969;DHT22;8085;53.472;9.794;2023-04-01T11:45:32;7.10;99.90
15969;DHT22;8085;53.472;9.794;2023-04-01T11:48:17;7.10;99.90
15969;DHT22;8085;53.472;9.794;2023-04-01T11:51:05;7.10;99.90
15969;DHT22;8085;53.472;9.794;2023-04-01T11:53:44;7.00;99.90
15969;DHT22;8085;53.472;9.794;2023-04-01T11:56:27;7.00;99.90
15969;DHT22;8085;53.472;9.794;2023-04-01T12:01:58;7.10;99.90
15969;DHT22;8085;53.472;9.794;2023-04-01T12:04:42;7.00;99.90
15969;DHT22;8085;53.472;9.794;2023-04-01T12:07:21;7.00;99.90
15969;DHT22;8085;53.472;9.794;2023-04-01T12:09:56;7.10;99.90
15969;DHT22;8085;53.472;9.794;2023-04-01T12:12:27;7.10;99.90
15969;DHT22;8085;53.472;9.794;2023-04-01T12:15:11;7.10;99.90
15969;DHT22;8085;53.472;9.794;2023-04-01T12:17:46;7.10;99.90
15969;DHT22;8085;53.472;9.794;2023-04-01T12:20:38;7.00;99.90
15969;DHT22;8085;53.472;9.794;2023-04-01T12:23:16;7.00;99.90
15969;DHT22;8085;53.472;9.794;2023-04-01T12:26:05;7.00;99.90
15969;DHT22;8085;53.472;9.794;2023-04-01T12:28:44;7.00;99.90
15969;DHT22;8085;53.472;9.794;2023-04-01T12:31:25;6.90;99.90
15969;DHT22;8085;53.472;9.794;2023-04-01T12:37:01;7.00;99.90
15969;DHT22;8085;53.472;9.794;2023-04-01T12:39:55;7.00;99.90
15969;DHT22;8085;53.472;9.794;2023-04-01T12:42:44;6.90;99.90
15969;DHT22;8085;53.472;9.794;2023-04-01T12:45:33;6.70;99.90
15969;DHT22;8085;53.472;9.794;2023-04-01T12:48:37;6.70;99.90
15969;DHT22;8085;53.472;9.794;2023-04-01T12:54:55;6.70;99.90
15969;DHT22;8085;53.472;9.794;2023-04-01T12:57:43;6.70;99.90
15969;DHT22;8085;53.472;9.794;2023-04-01T13:00:27;6.70;99.90
15969;DHT22;8085;53.472;9.794;2023-04-01T13:03:15;6.80;99.90
15969;DHT22;8085;53.472;9.794;2023-04-01T13:08:54;6.70;99.90
15969;DHT22;8085;53.472;9.794;2023-04-01T13:11:32;6.70;99.90
15969;DHT22;8085;53.472;9.794;2023-04-01T13:17:08;6.60;99.90
15969;DHT22;8085;53.472;9.794;2023-04-01T13:19:40;6.60;99.90
15969;DHT22;8085;53.472;9.794;2023-04-01T13:22:14;6.60;99.90
15969;DHT22;8085;53.472;9.794;2023-04-01T13:24:48;6.70;99.90
15969;DHT22;8085;53.472;9.794;2023-04-01T13:27:20;6.60;99.90
15969;DHT22;8085;53.472;9.794;2023-04-01T13:30:03;6.60;99.90
15969;DHT22;8085;53.472;9.794;2023-04-01T13:32:45;6.50;99.90
15969;DHT22;8085;53.472;9.794;2023-04-01T13:35:25;6.50;99.90
15969;DHT22;8085;53.472;9.794;2023-04-01T13:38:32;6.50;99.90
15969;DHT22;8085;53.472;9.794;2023-04-01T13:41:18;6.50;99.90
15969;DHT22;8085;53.472;9.794;2023-04-01T13:43:51;6.40;99.90
15969;DHT22;8085;53.472;9.794;2023-04-01T13:46:33;6.30;99.90
15969;DHT22;8085;53.472;9.794;2023-04-01T13:52:51;6.20;99.90
15969;DHT22;8085;53.472;9.794;2023-04-01T13:59:02;6.40;99.90
15969;DHT22;8085;53.472;9.794;2023-04-01T14:01:52;6.30;99.90
15969;DHT22;8085;53.472;9.794;2023-04-01T14:04:46;6.20;99.90
15969;DHT22;8085;53.472;9.794;2023-04-01T14:07:42;6.20;99.90
15969;DHT22;8085;53.472;9.794;2023-04-01T14:10:40;6.30;99.90
15969;DHT22;8085;53.472;9.794;2023-04-01T14:13:15;6.30;99.90
15969;DHT22;8085;53.472;9.794;2023-04-01T14:16:27;6.30;99.90
15969;DHT22;8085;53.472;9.794;2023-04-01T14:19:17;6.30;99.90
15969;DHT22;8085;53.472;9.794;2023-04-01T14:21:55;6.30;99.90
15969;DHT22;8085;53.472;9.794;2023-04-01T14:24:45;6.20;99.90
15969;DHT22;8085;53.472;9.794;2023-04-01T14:27:31;6.10;99.90
15969;DHT22;8085;53.472;9.794;2023-04-01T14:30:27;6.10;99.90
15969;DHT22;8085;53.472;9.794;2023-04-01T14:33:05;6.10;99.90
15969;DHT22;8085;53.472;9.794;2023-04-01T14:35:41;6.10;99.90
15969;DHT22;8085;53.472;9.794;2023-04-01T14:38:26;6.10;99.90
15969;DHT22;8085;53.472;9.794;2023-04-01T14:40:56;6.10;99.90
15969;DHT22;8085;53.472;9.794;2023-04-01T14:43:48;6.10;99.90
15969;DHT22;8085;53.472;9.794;2023-04-01T14:46:37;6.20;99.90
15969;DHT22;8085;53.472;9.794;2023-04-01T14:49:19;6.20;99.90
15969;DHT22;8085;53.472;9.794;2023-04-01T14:51:49;6.20;99.90
15969;DHT22;8085;53.472;9.794;2023-04-01T14:54:29;6.20;99.90
15969;DHT22;8085;53.472;9.794;2023-04-01T14:57:05;6.10;99.90
15969;DHT22;8085;53.472;9.794;2023-04-01T14:59:40;6.00;99.90
15969;DHT22;8085;53.472;9.794;2023-04-01T15:02:22;5.90;99.90
15969;DHT22;8085;53.472;9.794;2023-04-01T15:05:05;5.80;99.90
15969;DHT22;8085;53.472;9.794;2023-04-01T15:08:05;5.70;99.90
15969;DHT22;8085;53.472;9.794;2023-04-01T15:10:47;5.60;99.90
15969;DHT22;8085;53.472;9.794;2023-04-01T15:13:25;5.50;99.90
15969;DHT22;8085;53.472;9.794;2023-04-01T15:16:07;5.60;99.90
15969;DHT22;8085;53.472;9.794;2023-04-01T15:18:47;5.50;99.90
15969;DHT22;8085;53.472;9.794;2023-04-01T15:21:27;5.50;99.90
15969;DHT22;8085;53.472;9.794;2023-04-01T15:24:06;5.50;99.90
15969;DHT22;8085;53.472;9.794;2023-04-01T15:27:02;5.50;99.90
15969;DHT22;8085;53.472;9.794;2023-04-01T15:29:43;5.60;99.90
15969;DHT22;8085;53.472;9.794;2023-04-01T15:32:17;5.60;99.90
15969;DHT22;8085;53.472;9.794;2023-04-01T15:34:52;5.70;99.90
15969;DHT22;8085;53.472;9.794;2023-04-01T15:37:31;5.70;99.90
15969;DHT22;8085;53.472;9.794;2023-04-01T15:40:11;5.70;99.90
15969;DHT22;8085;53.472;9.794;2023-04-01T15:42:51;5.60;99.90
15969;DHT22;8085;53.472;9.794;2023-04-01T15:45:33;5.50;99.90
15969;DHT22;8085;53.472;9.794;2023-04-01T15:48:13;5.50;99.90
15969;DHT22;8085;53.472;9.794;2023-04-01T15:51:01;5.50;99.90
15969;DHT22;8085;53.472;9.794;2023-04-01T15:56:55;5.40;99.90
15969;DHT22;8085;53.472;9.794;2023-04-01T15:59:51;5.40;99.90
15969;DHT22;8085;53.472;9.794;2023-04-01T16:02:24;5.30;99.90
15969;DHT22;8085;53.472;9.794;2023-04-01T16:04:58;5.40;99.90
15969;DHT22;8085;53.472;9.794;2023-04-01T16:07:55;5.30;99.90
15969;DHT22;8085;53.472;9.794;2023-04-01T16:10:43;5.30;99.90
15969;DHT22;8085;53.472;9.794;2023-04-01T16:13:28;5.20;99.90
15969;DHT22;8085;53.472;9.794;2023-04-01T16:16:04;5.20;99.90
15969;DHT22;8085;53.472;9.794;2023-04-01T16:18:45;5.20;99.90
15969;DHT22;8085;53.472;9.794;2023-04-01T16:21:32;5.20;99.90
15969;DHT22;8085;53.472;9.794;2023-04-01T16:24:08;5.10;99.90
15969;DHT22;8085;53.472;9.794;2023-04-01T16:27:00;5.10;99.90
15969;DHT22;8085;53.472;9.794;2023-04-01T16:29:37;5.10;99.90
15969;DHT22;8085;53.472;9.794;2023-04-01T16:32:19;5.10;99.90
15969;DHT22;8085;53.472;9.794;2023-04-01T16:34:56;5.10;99.90
15969;DHT22;8085;53.472;9.794;2023-04-01T16:37:36;5.10;99.90
15969;DHT22;8085;53.472;9.794;2023-04-01T16:40:22;5.10;99.90
15969;DHT22;8085;53.472;9.794;2023-04-01T16:43:06;5.10;99.90
15969;DHT22;8085;53.472;9.794;2023-04-01T16:45:52;5.10;99.90
15969;DHT22;8085;53.472;9.794;2023-04-01T16:48:51;5.10;99.90
15969;DHT22;8085;53.472;9.794;2023-04-01T16:51:30;5.10;99.90
15969;DHT22;8085;53.472;9.794;2023-04-01T16:54:06;5.10;99.90
15969;DHT22;8085;53.472;9.794;2023-04-01T16:56:47;5.00;99.90
15969;DHT22;8085;53.472;9.794;2023-04-01T17:06:33;5.00;99.90
15969;DHT22;8085;53.472;9.794;2023-04-01T17:09:25;4.90;99.90
15969;DHT22;8085;53.472;9.794;2023-04-01T17:12:00;4.90;99.90
15969;DHT22;8085;53.472;9.794;2023-04-01T17:14:38;4.80;99.90
15969;DHT22;8085;53.472;9.794;2023-04-01T17:17:21;4.90;99.90
15969;DHT22;8085;53.472;9.794;2023-04-01T17:20:10;4.80;99.90
15969;DHT22;8085;53.472;9.794;2023-04-01T17:22:51;4.80;99.90
15969;DHT22;8085;53.472;9.794;2023-04-01T17:25:42;4.80;99.90
15969;DHT22;8085;53.472;9.794;2023-04-01T17:28:19;4.70;99.90
15969;DHT22;8085;53.472;9.794;2023-04-01T17:30:57;4.70;99.90
15969;DHT22;8085;53.472;9.794;2023-04-01T17:34:09;4.70;99.90
15969;DHT22;8085;53.472;9.794;2023-04-01T17:36:50;4.60;99.90
15969;DHT22;8085;53.472;9.794;2023-04-01T17:39:42;4.60;99.90
15969;DHT22;8085;53.472;9.794;2023-04-01T17:42:22;4.60;99.90
15969;DHT22;8085;53.472;9.794;2023-04-01T17:45:01;4.60;99.90
15969;DHT22;8085;53.472;9.794;2023-04-01T17:47:46;4.60;99.90
15969;DHT22;8085;53.472;9.794;2023-04-01T17:50:25;4.60;99.90
15969;DHT22;8085;53.472;9.794;2023-04-01T17:53:11;4.50;99.90
15969;DHT22;8085;53.472;9.794;2023-04-01T17:55:59;4.50;99.90
15969;DHT22;8085;53.472;9.794;2023-04-01T17:58:34;4.60;99.90
15969;DHT22;8085;53.472;9.794;2023-04-01T18:01:17;4.50;99.90
15969;DHT22;8085;53.472;9.794;2023-04-01T18:04:10;4.60;99.90
15969;DHT22;8085;53.472;9.794;2023-04-01T18:07:02;4.50;99.90
15969;DHT22;8085;53.472;9.794;2023-04-01T18:09:44;4.50;99.90
15969;DHT22;8085;53.472;9.794;2023-04-01T18:12:27;4.50;99.90
15969;DHT22;8085;53.472;9.794;2023-04-01T18:15:17;4.50;99.90
15969;DHT22;8085;53.472;9.794;2023-04-01T18:17:57;4.50;99.90
15969;DHT22;8085;53.472;9.794;2023-04-01T18:20:36;4.50;99.90
15969;DHT22;8085;53.472;9.794;2023-04-01T18:23:19;4.50;99.90
15969;DHT22;8085;53.472;9.794;2023-04-01T18:25:52;4.50;99.90
15969;DHT22;8085;53.472;9.794;2023-04-01T18:28:32;4.40;99.90
15969;DHT22;8085;53.472;9.794;2023-04-01T18:31:09;4.50;99.90
15969;DHT22;8085;53.472;9.794;2023-04-01T18:33:46;4.50;99.90
15969;DHT22;8085;53.472;9.794;2023-04-01T18:36:20;4.60;99.90
15969;DHT22;8085;53.472;9.794;2023-04-01T18:38:54;4.50;99.90
15969;DHT22;8085;53.472;9.794;2023-04-01T18:41:34;4.50;99.90
15969;DHT22;8085;53.472;9.794;2023-04-01T18:44:22;4.50;99.90
15969;DHT22;8085;53.472;9.794;2023-04-01T18:47:10;4.50;99.90
15969;DHT22;8085;53.472;9.794;2023-04-01T18:49:45;4.50;99.90
15969;DHT22;8085;53.472;9.794;2023-04-01T18:52:20;4.40;99.90
15969;DHT22;8085;53.472;9.794;2023-04-01T18:55:35;4.40;99.90
15969;DHT22;8085;53.472;9.794;2023-04-01T18:58:42;4.50;99.90
15969;DHT22;8085;53.472;9.794;2023-04-01T19:01:23;4.50;99.90
15969;DHT22;8085;53.472;9.794;2023-04-01T19:04:03;4.30;99.90
15969;DHT22;8085;53.472;9.794;2023-04-01T19:06:41;4.30;99.90
15969;DHT22;8085;53.472;9.794;2023-04-01T19:09:25;4.20;99.90
15969;DHT22;8085;53.472;9.794;2023-04-01T19:12:21;4.20;99.90
15969;DHT22;8085;53.472;9.794;2023-04-01T19:15:11;4.20;99.90
15969;DHT22;8085;53.472;9.794;2023-04-01T19:17:58;4.20;99.90
15969;DHT22;8085;53.472;9.794;2023-04-01T19:20:32;4.10;99.90
15969;DHT22;8085;53.472;9.794;2023-04-01T19:23:35;4.10;99.90
15969;DHT22;8085;53.472;9.794;2023-04-01T19:26:10;4.10;99.90
15969;DHT22;8085;53.472;9.794;2023-04-01T19:28:47;4.10;99.90
15969;DHT22;8085;53.472;9.794;2023-04-01T19:31:28;4.10;99.90
15969;DHT22;8085;53.472;9.794;2023-04-01T19:34:10;4.00;99.90
15969;DHT22;8085;53.472;9.794;2023-04-01T19:36:45;4.00;99.90
15969;DHT22;8085;53.472;9.794;2023-04-01T19:39:26;4.00;99.90
15969;DHT22;8085;53.472;9.794;2023-04-01T19:41:57;4.00;99.90
15969;DHT22;8085;53.472;9.794;2023-04-01T19:44:38;4.00;99.90
15969;DHT22;8085;53.472;9.794;2023-04-01T19:47:17;4.00;99.90
15969;DHT22;8085;53.472;9.794;2023-04-01T19:49:59;4.00;99.90
15969;DHT22;8085;53.472;9.794;2023-04-01T19:52:31;4.00;99.90
15969;DHT22;8085;53.472;9.794;2023-04-01T19:55:04;4.10;99.90
15969;DHT22;8085;53.472;9.794;2023-04-01T19:57:43;4.00;99.90
15969;DHT22;8085;53.472;9.794;2023-04-01T20:00:18;4.00;99.90
15969;DHT22;8085;53.472;9.794;2023-04-01T20:03:11;3.90;99.90
15969;DHT22;8085;53.472;9.794;2023-04-01T20:05:50;3.90;99.90
15969;DHT22;8085;53.472;9.794;2023-04-01T20:08:29;3.90;99.90
15969;DHT22;8085;53.472;9.794;2023-04-01T20:11:10;3.90;99.90
15969;DHT22;8085;53.472;9.794;2023-04-01T20:13:48;3.90;99.90
15969;DHT22;8085;53.472;9.794;2023-04-01T20:16:18;3.80;99.90
15969;DHT22;8085;53.472;9.794;2023-04-01T20:18:50;3.90;99.90
15969;DHT22;8085;53.472;9.794;2023-04-01T20:21:30;3.80;99.90
15969;DHT22;8085;53.472;9.794;2023-04-01T20:24:00;3.70;99.90
15969;DHT22;8085;53.472;9.794;2023-04-01T20:26:33;3.70;99.90
15969;DHT22;8085;53.472;9.794;2023-04-01T20:29:24;3.70;99.90
15969;DHT22;8085;53.472;9.794;2023-04-01T20:32:03;3.70;99.90
15969;DHT22;8085;53.472;9.794;2023-04-01T20:34:50;3.60;99.90
15969;DHT22;8085;53.472;9.794;2023-04-01T20:37:35;3.50;99.90
15969;DHT22;8085;53.472;9.794;2023-04-01T20:40:30;3.40;99.90
15969;DHT22;8085;53.472;9.794;2023-04-01T20:43:30;3.30;99.90
15969;DHT22;8085;53.472;9.794;2023-04-01T20:46:07;3.30;99.90
15969;DHT22;8085;53.472;9.794;2023-04-01T21:10:15;2.90;99.90
15969;DHT22;8085;53.472;9.794;2023-04-01T21:13:56;2.90;99.90
15969;DHT22;8085;53.472;9.794;2023-04-01T21:20:17;2.80;99.90
15969;DHT22;8085;53.472;9.794;2023-04-01T21:22:59;2.80;99.90
15969;DHT22;8085;53.472;9.794;2023-04-01T21:25:45;2.80;99.90
15969;DHT22;8085;53.472;9.794;2023-04-01T21:28:42;2.80;99.90
15969;DHT22;8085;53.472;9.794;2023-04-01T21:31:30;2.70;99.90
15969;DHT22;8085;53.472;9.794;2023-04-01T21:34:33;2.70;99.90
15969;DHT22;8085;53.472;9.794;2023-04-01T21:37:22;2.60;99.90
15969;DHT22;8085;53.472;9.794;2023-04-01T21:40:13;2.60;99.90
15969;DHT22;8085;53.472;9.794;2023-04-01T21:49:50;2.60;99.90
15969;DHT22;8085;53.472;9.794;2023-04-01T21:56:18;2.50;99.90
15969;DHT22;8085;53.472;9.794;2023-04-01T22:06:05;2.40;99.90
15969;DHT22;8085;53.472;9.794;2023-04-01T22:12:28;2.40;99.90
15969;DHT22;8085;53.472;9.794;2023-04-01T22:15:03;2.30;99.90
15969;DHT22;8085;53.472;9.794;2023-04-01T22:17:40;2.40;99.90
15969;DHT22;8085;53.472;9.794;2023-04-01T22:20:20;2.30;99.90
15969;DHT22;8085;53.472;9.794;2023-04-01T22:23:22;2.20;99.90
15969;DHT22;8085;53.472;9.794;2023-04-01T22:26:06;2.20;99.90
15969;DHT22;8085;53.472;9.794;2023-04-01T22:28:39;2.20;99.90
15969;DHT22;8085;53.472;9.794;2023-04-01T22:31:13;2.10;99.90
15969;DHT22;8085;53.472;9.794;2023-04-01T22:33:48;2.20;99.90
15969;DHT22;8085;53.472;9.794;2023-04-01T22:36:25;2.10;99.90
15969;DHT22;8085;53.472;9.794;2023-04-01T22:39:04;2.10;99.90
15969;DHT22;8085;53.472;9.794;2023-04-01T22:41:44;2.10;99.90
15969;DHT22;8085;53.472;9.794;2023-04-01T22:44:21;2.10;99.90
15969;DHT22;8085;53.472;9.794;2023-04-01T22:47:18;2.10;99.90
15969;DHT22;8085;53.472;9.794;2023-04-01T22:49:55;2.10;99.90
15969;DHT22;8085;53.472;9.794;2023-04-01T22:52:34;2.00;99.90
15969;DHT22;8085;53.472;9.794;2023-04-01T22:55:27;2.10;99.90
15969;DHT22;8085;53.472;9.794;2023-04-01T22:57:59;2.00;99.90
15969;DHT22;8085;53.472;9.794;2023-04-01T23:00:32;2.00;99.90
15969;DHT22;8085;53.472;9.794;2023-04-01T23:03:06;2.00;99.90
15969;DHT22;8085;53.472;9.794;2023-04-01T23:05:39;1.90;99.90
15969;DHT22;8085;53.472;9.794;2023-04-01T23:08:47;2.00;99.90
15969;DHT22;8085;53.472;9.794;2023-04-01T23:11:23;2.00;99.90
15969;DHT22;8085;53.472;9.794;2023-04-01T23:13:56;1.90;99.90
15969;DHT22;8085;53.472;9.794;2023-04-01T23:16:33;1.90;99.90
15969;DHT22;8085;53.472;9.794;2023-04-01T23:19:09;1.90;99.90
15969;DHT22;8085;53.472;9.794;2023-04-01T23:21:46;1.90;99.90
15969;DHT22;8085;53.472;9.794;2023-04-01T23:24:24;1.90;99.90
15969;DHT22;8085;53.472;9.794;2023-04-01T23:27:00;1.90;99.90
15969;DHT22;8085;53.472;9.794;2023-04-01T23:29:35;1.90;99.90
15969;DHT22;8085;53.472;9.794;2023-04-01T23:32:04;1.80;99.90
15969;DHT22;8085;53.472;9.794;2023-04-01T23:34:33;1.80;99.90
15969;DHT22;8085;53.472;9.794;2023-04-01T23:37:07;1.80;99.90
15969;DHT22;8085;53.472;9.794;2023-04-01T23:39:39;1.90;99.90
15969;DHT22;8085;53.472;9.794;2023-04-01T23:42:15;1.80;99.90
15969;DHT22;8085;53.472;9.794;2023-04-01T23:45:03;1.80;99.90
15969;DHT22;8085;53.472;9.794;2023-04-01T23:47:37;1.80;99.90
15969;DHT22;8085;53.472;9.794;2023-04-01T23:50:11;1.80;99.90
15969;DHT22;8085;53.472;9.794;2023-04-01T23:52:58;1.70;99.90
15969;DHT22;8085;53.472;9.794;2023-04-01T23:55:31;1.70;99.90
15969;DHT22;8085;53.472;9.794;2023-04-01T23:58:10;1.70;99.90
